5C1

Boerne Stage Field Airport

San Antonio, Texas, USA
METAR K5C1 092135Z AUTO 36009KT 10SM SCT034 10/01 A3030 RMK AO1
Observed Flight Rules
Dec-9 @ 21:35 UTC (27 minutes ago) Visual Flight Rules
Wind Visibility Clouds
360° at 9 knots 10 miles
  • Scattered at 3,400' AGL
Temperatures Readings
Current 10°C / 50°F
Dewpoint 1°C / 34°F
Humidity 54%
Altimeter 30.3" Hg
Pressure 1026 hPa
Elevation 423
METAR K5C1 092135Z AUTO 36009KT 10SM SCT034 10/01 A3030 RMK AO1
Observed Flight Rules
Dec-9 @ 21:35 UTC
(27 minutes ago)
VFR
Wind Visibility
360° at 9 knots 10 miles
Clouds
  • Scattered at 3,400' AGL
Temperature Dewpoint
10°C / 50°F 1°C / 34°F
Humidity Altimeter Pressure
54% 30.3" Hg 1026 hPa